Alpine, CA

5:16 PM PDT on August 30, 2014 (GMT -0700)
Alpine: Rancho Palo Verde | Change Station
CLOSE
Current Station
Personal Weather Station
Location: Alpine, CA
Elevation: 2015 ft
Nearby Weather Stations

Elev 2015 ft 32.81 °N, 116.76 °W | Updated 5 seconds ago

Clear
Clear
94.0 °F
Feels Like 94 °F
N
3.0
Wind Variable Wind from WNW
Gusts 6.0 mph

Today
High -- | Low -- °F
--% Chance of Precip.
Yesterday
High -- | Low -- °F
Precip. -- in
6:20 AM 7:14 PM
Waxing Crescent, 26% visible
Pressure 29.77 in
Visibility 10.0 miles
Clouds Clear
Heat Index 94 °F
Dew Point 60 °F
Humidity 33%
Rainfall 0.00 in
Snow Depth Not available.
UV 3 out of 12
Pollen 8.10 out of 12
Ozone Moderate
PM2.5 Good
Flu Activity Not available.
METAR KSEE 302355Z AUTO 28008KT 10SM CLR 33/15 A2977 RMK AO2

More Conditions Fewer Conditions

Pressure 29.77 in
Visibility 10.0 miles
Clouds Clear
Heat Index 94 °F
Dew Point 60 °F
Humidity 33%
Rainfall 0.00 in
Snow Depth Not available.
UV 3 out of 12
Pollen 8.10 out of 12
Ozone Moderate
PM2.5 Good
Flu Activity Not available.
METAR KSEE 302355Z AUTO 28008KT 10SM CLR 33/15 A2977 RMK AO2

More Conditions Fewer Conditions

10-Day Weather Forecast

Almanac

Astronomy

Aug. 30, 2014 Rise Set
Actual Time 6:20 AM PDT 7:14 PM PDT
Civil Twilight 5:55 AM PDT 7:39 PM PDT
Nautical Twilight 5:25 AM PDT 8:09 PM PDT
Astronomical Twilight 4:54 AM PDT 8:39 PM PDT
Moon 10:55 AM PDT (8/30) 10:09 PM PDT (8/30)
Length of Visible Light 13h 44m
Length of Day
12h 53m
Tomorrow will be 1m 56s shorter.
Waxing Crescent, 26% of the Moon is Illuminated
Today
Waxing Crescent
Sep 2
First Quarter
Sep 8
Full
Sep 15
Last Quarter
Sep 24
New

Today's Extremes

State Highs State Lows

Community

WunderPhotos

Upload Photos

1,748,696 photos uploaded!

Nearby

Air Quality

  Air Quality AQ Index Pollutant
Yesterday Moderate
OZONE
Yesterday Good
PM2.5
Current Moderate
OZONE
Current Good
PM2.5
Saturday Moderate
OZONE
Saturday Good
PM2.5
Sunday Moderate
OZONE
Sunday Good
PM2.5
Monday Good
PM2.5
Monday Good
OZONE

Snow Depth

Station Depth Elevation
Leavitt Meadows 0 in 7200 ft
Summit Meadow 0 in 9122 ft
Tahoe City Cross 0 in 6750 ft
CSS Lab 0 in 6900 ft
Adin Mountain 0 in 6200 ft

Earthquake Activity

City Distance Mag. Time & Date
No recent earthquake activity has been reported nearby.
Minimum magnitude displayed is 2.5.

Coastal Water Temperatures

Place Temperature
La Jolla, CA 73.9 °F
San Diego, CA 75.0 °F

Nearby Weather Stations